sensor_id;sensor_type;location;lat;lon;timestamp;P1;durP1;ratioP1;P2;durP2;ratioP2
12842;SDS011;35724;49.324;-123.118;2023-06-10T00:09:30;2.97;;;2.53;;
12842;SDS011;35724;49.324;-123.118;2023-06-10T00:19:37;2.90;;;2.40;;
12842;SDS011;35724;49.324;-123.118;2023-06-10T00:29:46;4.05;;;2.92;;
12842;SDS011;35724;49.324;-123.118;2023-06-10T00:39:53;3.15;;;2.70;;
12842;SDS011;35724;49.324;-123.118;2023-06-10T00:50:02;3.50;;;2.80;;
12842;SDS011;35724;49.324;-123.118;2023-06-10T01:00:11;3.75;;;2.88;;
12842;SDS011;35724;49.324;-123.118;2023-06-10T01:10:22;4.72;;;2.72;;
12842;SDS011;35724;49.324;-123.118;2023-06-10T01:20:36;3.17;;;2.85;;
12842;SDS011;35724;49.324;-123.118;2023-06-10T01:30:48;3.72;;;2.88;;
12842;SDS011;35724;49.324;-123.118;2023-06-10T01:41:00;6.30;;;2.95;;
12842;SDS011;35724;49.324;-123.118;2023-06-10T01:51:10;3.63;;;2.95;;
12842;SDS011;35724;49.324;-123.118;2023-06-10T02:01:17;3.45;;;2.85;;
12842;SDS011;35724;49.324;-123.118;2023-06-10T02:11:27;3.65;;;2.95;;
12842;SDS011;35724;49.324;-123.118;2023-06-10T02:21:34;2.90;;;2.70;;
12842;SDS011;35724;49.324;-123.118;2023-06-10T02:31:42;3.38;;;2.70;;
12842;SDS011;35724;49.324;-123.118;2023-06-10T02:41:49;4.03;;;2.92;;
12842;SDS011;35724;49.324;-123.118;2023-06-10T02:51:58;2.95;;;2.65;;
12842;SDS011;35724;49.324;-123.118;2023-06-10T03:02:06;3.97;;;2.90;;
12842;SDS011;35724;49.324;-123.118;2023-06-10T03:12:21;3.85;;;2.95;;
12842;SDS011;35724;49.324;-123.118;2023-06-10T03:22:28;3.88;;;3.20;;
12842;SDS011;35724;49.324;-123.118;2023-06-10T03:32:42;3.35;;;3.05;;
12842;SDS011;35724;49.324;-123.118;2023-06-10T03:42:52;3.35;;;2.70;;
12842;SDS011;35724;49.324;-123.118;2023-06-10T03:53:00;3.50;;;3.20;;
12842;SDS011;35724;49.324;-123.118;2023-06-10T04:03:08;4.80;;;3.00;;
12842;SDS011;35724;49.324;-123.118;2023-06-10T04:13:24;4.28;;;3.22;;
12842;SDS011;35724;49.324;-123.118;2023-06-10T04:23:34;6.82;;;3.65;;
12842;SDS011;35724;49.324;-123.118;2023-06-10T04:33:48;4.38;;;2.85;;
12842;SDS011;35724;49.324;-123.118;2023-06-10T04:43:59;2.88;;;2.58;;
12842;SDS011;35724;49.324;-123.118;2023-06-10T04:54:09;4.05;;;2.50;;
12842;SDS011;35724;49.324;-123.118;2023-06-10T05:04:16;3.35;;;2.47;;
12842;SDS011;35724;49.324;-123.118;2023-06-10T05:14:25;2.83;;;2.40;;
12842;SDS011;35724;49.324;-123.118;2023-06-10T05:24:32;3.25;;;2.53;;
12842;SDS011;35724;49.324;-123.118;2023-06-10T05:34:41;3.03;;;2.58;;
12842;SDS011;35724;49.324;-123.118;2023-06-10T05:44:48;2.60;;;2.40;;
12842;SDS011;35724;49.324;-123.118;2023-06-10T05:54:57;2.90;;;2.70;;
12842;SDS011;35724;49.324;-123.118;2023-06-10T06:05:04;3.45;;;3.05;;
12842;SDS011;35724;49.324;-123.118;2023-06-10T06:15:14;3.78;;;3.40;;
12842;SDS011;35724;49.324;-123.118;2023-06-10T06:25:21;3.50;;;2.80;;
12842;SDS011;35724;49.324;-123.118;2023-06-10T06:35:32;2.78;;;2.58;;
12842;SDS011;35724;49.324;-123.118;2023-06-10T06:45:40;3.17;;;2.60;;
12842;SDS011;35724;49.324;-123.118;2023-06-10T06:55:48;2.78;;;2.50;;
12842;SDS011;35724;49.324;-123.118;2023-06-10T07:05:55;3.67;;;3.38;;
12842;SDS011;35724;49.324;-123.118;2023-06-10T07:16:04;6.05;;;5.45;;
12842;SDS011;35724;49.324;-123.118;2023-06-10T07:26:11;6.18;;;5.57;;
12842;SDS011;35724;49.324;-123.118;2023-06-10T07:36:20;5.97;;;5.35;;
12842;SDS011;35724;49.324;-123.118;2023-06-10T07:46:27;5.38;;;4.88;;
12842;SDS011;35724;49.324;-123.118;2023-06-10T07:56:36;5.30;;;4.80;;
12842;SDS011;35724;49.324;-123.118;2023-06-10T08:06:43;5.38;;;4.82;;
12842;SDS011;35724;49.324;-123.118;2023-06-10T08:16:52;5.03;;;4.53;;
12842;SDS011;35724;49.324;-123.118;2023-06-10T08:27:02;4.50;;;4.10;;
12842;SDS011;35724;49.324;-123.118;2023-06-10T08:37:11;3.80;;;3.50;;
12842;SDS011;35724;49.324;-123.118;2023-06-10T08:47:18;3.83;;;3.42;;
12842;SDS011;35724;49.324;-123.118;2023-06-10T08:57:29;3.72;;;3.40;;
12842;SDS011;35724;49.324;-123.118;2023-06-10T09:07:36;3.00;;;2.75;;
12842;SDS011;35724;49.324;-123.118;2023-06-10T09:17:46;2.90;;;2.60;;
12842;SDS011;35724;49.324;-123.118;2023-06-10T09:27:55;2.60;;;2.40;;
12842;SDS011;35724;49.324;-123.118;2023-06-10T09:38:03;2.47;;;2.28;;
12842;SDS011;35724;49.324;-123.118;2023-06-10T09:48:12;2.17;;;1.98;;
12842;SDS011;35724;49.324;-123.118;2023-06-10T09:58:21;1.90;;;1.80;;
12842;SDS011;35724;49.324;-123.118;2023-06-10T10:08:40;1.75;;;1.63;;
12842;SDS011;35724;49.324;-123.118;2023-06-10T10:18:51;1.77;;;1.65;;
12842;SDS011;35724;49.324;-123.118;2023-06-10T10:29:10;1.48;;;1.38;;
12842;SDS011;35724;49.324;-123.118;2023-06-10T10:39:23;1.30;;;1.20;;
12842;SDS011;35724;49.324;-123.118;2023-06-10T10:49:34;1.30;;;1.20;;
12842;SDS011;35724;49.324;-123.118;2023-06-10T10:59:51;1.30;;;1.20;;
12842;SDS011;35724;49.324;-123.118;2023-06-10T11:10:06;0.95;;;0.95;;
12842;SDS011;35724;49.324;-123.118;2023-06-10T11:31:00;1.10;;;1.00;;
12842;SDS011;35724;49.324;-123.118;2023-06-10T11:41:07;0.90;;;0.90;;
12842;SDS011;35724;49.324;-123.118;2023-06-10T11:51:15;0.80;;;0.80;;
12842;SDS011;35724;49.324;-123.118;2023-06-10T12:01:23;0.90;;;0.90;;
12842;SDS011;35724;49.324;-123.118;2023-06-10T12:11:33;0.90;;;0.90;;
12842;SDS011;35724;49.324;-123.118;2023-06-10T12:21:41;0.80;;;0.80;;
12842;SDS011;35724;49.324;-123.118;2023-06-10T12:31:59;0.80;;;0.80;;
12842;SDS011;35724;49.324;-123.118;2023-06-10T12:42:08;0.80;;;0.80;;
12842;SDS011;35724;49.324;-123.118;2023-06-10T12:52:19;0.82;;;0.82;;
12842;SDS011;35724;49.324;-123.118;2023-06-10T13:02:25;1.10;;;1.00;;
12842;SDS011;35724;49.324;-123.118;2023-06-10T13:12:34;0.80;;;0.80;;
12842;SDS011;35724;49.324;-123.118;2023-06-10T13:22:50;0.90;;;0.90;;
12842;SDS011;35724;49.324;-123.118;2023-06-10T13:33:01;0.80;;;0.80;;
12842;SDS011;35724;49.324;-123.118;2023-06-10T13:43:09;0.80;;;0.80;;
12842;SDS011;35724;49.324;-123.118;2023-06-10T13:53:18;1.00;;;1.00;;
12842;SDS011;35724;49.324;-123.118;2023-06-10T14:03:25;0.98;;;0.98;;
12842;SDS011;35724;49.324;-123.118;2023-06-10T14:13:36;0.90;;;0.90;;
12842;SDS011;35724;49.324;-123.118;2023-06-10T14:23:44;1.00;;;1.00;;
12842;SDS011;35724;49.324;-123.118;2023-06-10T14:33:54;0.90;;;0.90;;
12842;SDS011;35724;49.324;-123.118;2023-06-10T14:44:01;1.85;;;1.30;;
12842;SDS011;35724;49.324;-123.118;2023-06-10T14:54:10;2.30;;;1.50;;
12842;SDS011;35724;49.324;-123.118;2023-06-10T15:04:17;2.10;;;1.30;;
12842;SDS011;35724;49.324;-123.118;2023-06-10T15:14:30;1.92;;;1.40;;
12842;SDS011;35724;49.324;-123.118;2023-06-10T15:24:38;2.47;;;1.52;;
12842;SDS011;35724;49.324;-123.118;2023-06-10T15:34:47;1.85;;;1.30;;
12842;SDS011;35724;49.324;-123.118;2023-06-10T15:44:56;2.40;;;1.30;;
12842;SDS011;35724;49.324;-123.118;2023-06-10T15:55:05;2.00;;;1.00;;
12842;SDS011;35724;49.324;-123.118;2023-06-10T16:05:13;1.10;;;1.00;;
12842;SDS011;35724;49.324;-123.118;2023-06-10T16:15:22;5.10;;;1.60;;
12842;SDS011;35724;49.324;-123.118;2023-06-10T16:25:29;3.67;;;1.65;;
12842;SDS011;35724;49.324;-123.118;2023-06-10T16:35:39;2.00;;;1.80;;
12842;SDS011;35724;49.324;-123.118;2023-06-10T16:45:46;1.60;;;1.50;;
12842;SDS011;35724;49.324;-123.118;2023-06-10T16:55:55;1.73;;;1.60;;
12842;SDS011;35724;49.324;-123.118;2023-06-10T17:06:05;1.65;;;1.55;;
12842;SDS011;35724;49.324;-123.118;2023-06-10T17:16:14;1.80;;;1.70;;
12842;SDS011;35724;49.324;-123.118;2023-06-10T17:26:22;1.45;;;1.35;;
12842;SDS011;35724;49.324;-123.118;2023-06-10T17:36:31;2.05;;;1.83;;
12842;SDS011;35724;49.324;-123.118;2023-06-10T17:46:38;1.80;;;1.70;;
12842;SDS011;35724;49.324;-123.118;2023-06-10T17:56:47;1.50;;;1.40;;
12842;SDS011;35724;49.324;-123.118;2023-06-10T18:06:54;1.70;;;1.60;;
12842;SDS011;35724;49.324;-123.118;2023-06-10T18:17:03;1.48;;;1.30;;
12842;SDS011;35724;49.324;-123.118;2023-06-10T18:27:11;2.22;;;1.40;;
12842;SDS011;35724;49.324;-123.118;2023-06-10T18:37:20;1.45;;;1.35;;
12842;SDS011;35724;49.324;-123.118;2023-06-10T18:47:30;1.40;;;1.30;;
12842;SDS011;35724;49.324;-123.118;2023-06-10T18:57:58;2.45;;;1.20;;
12842;SDS011;35724;49.324;-123.118;2023-06-10T19:08:05;1.38;;;1.20;;
12842;SDS011;35724;49.324;-123.118;2023-06-10T19:18:18;1.30;;;1.20;;
12842;SDS011;35724;49.324;-123.118;2023-06-10T19:28:25;2.28;;;1.13;;
12842;SDS011;35724;49.324;-123.118;2023-06-10T19:38:33;1.90;;;1.20;;
12842;SDS011;35724;49.324;-123.118;2023-06-10T19:48:40;1.52;;;1.02;;
12842;SDS011;35724;49.324;-123.118;2023-06-10T19:58:49;1.20;;;1.10;;
12842;SDS011;35724;49.324;-123.118;2023-06-10T20:08:56;2.03;;;1.27;;
12842;SDS011;35724;49.324;-123.118;2023-06-10T20:19:06;1.60;;;0.93;;
12842;SDS011;35724;49.324;-123.118;2023-06-10T20:29:13;2.17;;;0.90;;
12842;SDS011;35724;49.324;-123.118;2023-06-10T20:39:21;1.35;;;1.25;;
12842;SDS011;35724;49.324;-123.118;2023-06-10T20:49:28;0.90;;;0.90;;
12842;SDS011;35724;49.324;-123.118;2023-06-10T20:59:37;2.42;;;1.27;;
12842;SDS011;35724;49.324;-123.118;2023-06-10T21:09:44;1.30;;;1.15;;
12842;SDS011;35724;49.324;-123.118;2023-06-10T21:19:55;4.82;;;1.40;;
12842;SDS011;35724;49.324;-123.118;2023-06-10T21:30:03;1.20;;;1.10;;
12842;SDS011;35724;49.324;-123.118;2023-06-10T21:40:12;1.38;;;0.90;;
12842;SDS011;35724;49.324;-123.118;2023-06-10T21:50:20;1.27;;;1.17;;
12842;SDS011;35724;49.324;-123.118;2023-06-10T22:00:28;3.30;;;1.20;;
12842;SDS011;35724;49.324;-123.118;2023-06-10T22:10:35;2.25;;;1.05;;
12842;SDS011;35724;49.324;-123.118;2023-06-10T22:20:46;0.93;;;0.93;;
12842;SDS011;35724;49.324;-123.118;2023-06-10T22:30:53;2.67;;;1.10;;
12842;SDS011;35724;49.324;-123.118;2023-06-10T22:41:02;1.33;;;1.20;;
12842;SDS011;35724;49.324;-123.118;2023-06-10T22:51:09;3.20;;;1.48;;
12842;SDS011;35724;49.324;-123.118;2023-06-10T23:01:18;2.50;;;1.30;;
12842;SDS011;35724;49.324;-123.118;2023-06-10T23:11:26;1.73;;;1.20;;
12842;SDS011;35724;49.324;-123.118;2023-06-10T23:21:35;1.55;;;1.30;;
12842;SDS011;35724;49.324;-123.118;2023-06-10T23:31:42;1.67;;;1.42;;
12842;SDS011;35724;49.324;-123.118;2023-06-10T23:41:51;1.60;;;1.50;;
12842;SDS011;35724;49.324;-123.118;2023-06-10T23:51:58;1.75;;;1.60;;
